Time;durP1;ratioP1;P1;durP2;ratioP2;P2;SDS_P1;SDS_P2;PMS_P1;PMS_P2;Temp;Humidity;BMP_temperature;BMP_pressure;BME280_temperature;BME280_humidity;BME280_pressure;Samples;Min_cycle;Max_cycle;Signal;HPM_P1;HPM_P2
2021/01/10 00:02:14;;;;;;;29.75;22.58;;;;;;;2.89;77.46;100843.41;5075052;28;20055;-80
2021/01/10 00:05:24;;;;;;;26.42;19.63;;;;;;;2.81;77.00;100840.28;5074734;28;20380;-80
2021/01/10 00:08:29;;;;;;;27.73;22.38;;;;;;;2.88;76.83;100834.59;5074628;28;20051;-80
2021/01/10 00:11:33;;;;;;;26.33;19.80;;;;;;;2.81;76.73;100827.03;5074550;28;20052;-84
2021/01/10 00:14:37;;;;;;;26.40;20.20;;;;;;;2.87;76.94;100821.41;5073843;28;20060;-83
2021/01/10 00:17:44;;;;;;;26.33;20.20;;;;;;;2.88;76.86;100829.31;5073458;28;20059;-84
2021/01/10 00:20:48;;;;;;;24.33;20.52;;;;;;;2.85;76.68;100829.44;5074187;28;20071;-84
2021/01/10 00:23:52;;;;;;;23.35;19.40;;;;;;;2.90;76.74;100818.59;5074044;28;20052;-83
2021/01/10 00:26:56;;;;;;;;;;;;;;;2.84;76.59;100817.09;5074756;28;20482;-83
2021/01/10 00:30:00;;;;;;;24.33;19.05;;;;;;;2.88;76.85;100818.69;5074244;28;19916;-83
2021/01/10 00:33:04;;;;;;;26.42;19.85;;;;;;;2.94;76.89;100818.38;5073759;28;20071;-83
2021/01/10 00:36:09;;;;;;;26.80;18.95;;;;;;;2.94;76.55;100806.94;5074307;28;20388;-83
2021/01/10 00:39:14;;;;;;;22.05;18.90;;;;;;;2.91;76.08;100809.72;5073640;28;20045;-84
2021/01/10 00:42:18;;;;;;;25.77;19.45;;;;;;;2.98;75.82;100812.00;5073420;28;20051;-83
2021/01/10 00:45:23;;;;;;;24.75;18.95;;;;;;;3.01;76.11;100811.84;5073813;28;20051;-84
2021/01/10 00:48:30;;;;;;;26.17;20.05;;;;;;;3.05;76.11;100809.91;5074138;28;20387;-85
2021/01/10 00:51:36;;;;;;;21.58;18.50;;;;;;;3.04;76.32;100798.44;5074080;28;20051;-82
2021/01/10 00:54:41;;;;;;;23.90;18.63;;;;;;;3.02;76.32;100799.44;5073274;28;20063;-81
2021/01/10 00:57:47;;;;;;;22.38;19.05;;;;;;;3.03;76.53;100806.47;5073237;28;20063;-84
2021/01/10 01:00:51;;;;;;;25.38;20.38;;;;;;;3.04;76.64;100795.78;5074016;28;20064;-83
2021/01/10 01:03:55;;;;;;;22.58;18.45;;;;;;;3.08;76.54;100792.06;5074060;28;20048;-81
2021/01/10 01:06:59;;;;;;;23.95;19.75;;;;;;;3.10;76.27;100797.28;5084643;28;20059;-78
2021/01/10 01:10:04;;;;;;;22.55;18.02;;;;;;;3.09;76.14;100807.00;5072836;28;20403;-82
2021/01/10 01:13:08;;;;;;;23.73;18.58;;;;;;;3.08;76.24;100802.66;5073035;28;20055;-82
2021/01/10 01:16:12;;;;;;;;;;;;;;;3.01;76.09;100809.19;5074333;28;20387;-84
2021/01/10 01:19:16;;;;;;;21.83;17.30;;;;;;;3.05;76.14;100818.72;5084182;28;19917;-83
2021/01/10 01:22:21;;;;;;;21.60;16.95;;;;;;;3.07;75.57;100832.75;5077956;28;20270;-83
2021/01/10 01:25:25;;;;;;;22.23;17.70;;;;;;;3.11;75.71;100841.44;5077826;28;20482;-84
2021/01/10 01:28:29;;;;;;;22.02;18.77;;;;;;;3.12;75.65;100848.44;5076855;28;20051;-84
2021/01/10 01:31:34;;;;;;;22.05;17.50;;;;;;;3.13;75.85;100855.47;5077705;28;20483;-82
2021/01/10 01:34:38;;;;;;;21.20;17.73;;;;;;;3.13;75.32;100861.66;5077116;28;20060;-81
2021/01/10 01:37:42;;;;;;;22.65;17.73;;;;;;;3.16;75.32;100864.13;5077544;28;20138;-79
2021/01/10 01:40:47;;;;;;;21.60;16.95;;;;;;;3.13;75.16;100851.03;5076685;28;20051;-82
2021/01/10 01:43:52;;;;;;;21.65;18.02;;;;;;;3.14;75.24;100857.16;5077472;28;20044;-83
2021/01/10 01:46:56;;;;;;;21.30;17.23;;;;;;;3.04;75.56;100863.84;5076319;28;20071;-81
2021/01/10 01:50:05;;;;;;;21.38;18.45;;;;;;;3.04;75.74;100854.13;5077349;28;20052;-82
2021/01/10 01:53:10;;;;;;;24.70;19.13;;;;;;;3.01;75.39;100848.97;5076996;28;20048;-84
2021/01/10 01:56:15;;;;;;;24.48;18.98;;;;;;;3.00;75.52;100849.91;5076681;28;20051;-82
2021/01/10 01:59:19;;;;;;;23.13;18.85;;;;;;;3.03;75.59;100859.50;5077465;28;20381;-80
2021/01/10 02:02:23;;;;;;;23.23;18.08;;;;;;;3.03;75.50;100854.22;5077114;28;20048;-77
2021/01/10 02:05:31;;;;;;;22.52;17.42;;;;;;;3.05;75.83;100860.28;5077029;28;20067;-80
2021/01/10 02:08:36;;;;;;;21.83;18.23;;;;;;;3.02;75.94;100848.03;5076334;28;20051;-78
2021/01/10 02:11:47;;;;;;;21.77;17.88;;;;;;;2.98;75.92;100846.47;5076957;28;20055;-77
2021/01/10 02:14:58;;;;;;;21.92;17.83;;;;;;;3.03;75.75;100838.28;5076913;28;20047;-74
2021/01/10 02:18:07;;;;;;;25.90;19.60;;;;;;;3.04;75.65;100829.38;5065069;28;20048;-79
2021/01/10 02:21:12;;;;;;;22.13;17.67;;;;;;;3.05;75.76;100831.13;5066880;28;20387;-79
2021/01/10 02:24:17;;;;;;;22.17;18.33;;;;;;;3.02;76.27;100833.91;5065962;28;20048;-78
2021/01/10 02:27:22;;;;;;;22.83;18.63;;;;;;;3.01;76.78;100830.41;5066495;28;20047;-77
2021/01/10 02:30:28;;;;;;;25.90;19.42;;;;;;;2.99;76.83;100821.66;5066719;28;20047;-78
2021/01/10 02:33:54;;;;;;;22.70;17.17;;;;;;;3.01;77.09;100813.66;5063236;28;20047;-79
2021/01/10 02:37:35;;;;;;;21.08;17.38;;;;;;;2.94;76.48;100802.47;5066855;28;20044;-79
2021/01/10 02:40:53;;;;;;;24.90;18.08;;;;;;;2.94;76.40;100793.69;5066776;28;20036;-78
2021/01/10 02:44:11;;;;;;;25.02;19.15;;;;;;;2.92;76.04;100798.19;5066840;28;20040;-79
2021/01/10 02:47:15;;;;;;;28.08;18.85;;;;;;;2.80;76.06;100798.78;5074795;28;20051;-78
2021/01/10 02:50:20;;;;;;;22.15;17.80;;;;;;;2.80;76.18;100791.69;5076544;28;20051;-76
2021/01/10 02:53:24;;;;;;;24.00;18.77;;;;;;;2.74;76.27;100777.91;5076016;28;20067;-78
2021/01/10 02:56:34;;;;;;;21.67;18.08;;;;;;;2.72;76.11;100780.59;5076171;28;20068;-77
2021/01/10 02:59:42;;;;;;;26.00;19.38;;;;;;;2.69;76.41;100775.47;5076117;28;20056;-75
2021/01/10 03:02:47;;;;;;;23.42;18.55;;;;;;;2.69;76.54;100770.19;5076032;28;20063;-75
2021/01/10 03:05:51;;;;;;;23.33;19.42;;;;;;;2.66;76.76;100764.16;5075171;28;20071;-79
2021/01/10 03:08:56;;;;;;;23.65;18.58;;;;;;;2.74;76.97;100777.91;5075314;28;20106;-77
2021/01/10 03:12:32;;;;;;;24.48;19.83;;;;;;;2.71;77.28;100789.50;5075569;28;20043;-77
2021/01/10 03:15:37;;;;;;;28.77;20.00;;;;;;;2.73;77.27;100790.28;5014462;28;20053;-79
2021/01/10 03:18:41;;;;;;;24.90;19.60;;;;;;;2.75;77.41;100791.06;5014079;28;20057;-75
2021/01/10 03:21:47;;;;;;;25.08;19.98;;;;;;;2.72;77.58;100790.34;5013652;28;20397;-76
2021/01/10 03:24:51;;;;;;;21.83;18.60;;;;;;;2.77;77.61;100789.19;5013512;28;20153;-77
2021/01/10 03:27:55;;;;;;;24.45;19.95;;;;;;;2.77;77.73;100788.31;5013378;28;20061;-80
2021/01/10 03:30:59;;;;;;;24.70;20.35;;;;;;;2.77;78.32;100783.03;5013748;28;20493;-80
2021/01/10 03:34:03;;;;;;;23.60;18.63;;;;;;;2.77;78.01;100788.31;5013322;28;20053;-80
2021/01/10 03:37:07;;;;;;;25.65;20.13;;;;;;;2.68;78.04;100787.00;5013336;28;20049;-76
2021/01/10 03:40:13;;;;;;;24.48;19.42;;;;;;;2.73;78.50;100795.59;5013388;28;20153;-75
2021/01/10 03:43:17;;;;;;;31.13;20.02;;;;;;;2.75;78.43;100798.16;5013148;28;20053;-78
2021/01/10 03:46:21;;;;;;;22.98;19.02;;;;;;;2.77;78.34;100797.13;5002448;28;20065;-77
2021/01/10 03:49:25;;;;;;;27.30;21.27;;;;;;;2.81;78.47;100792.56;5001939;28;20057;-81
2021/01/10 03:52:30;;;;;;;23.10;18.83;;;;;;;2.78;78.56;100767.06;5034910;28;20484;-80
2021/01/10 03:55:34;;;;;;;23.35;18.63;;;;;;;2.78;78.25;100761.75;5033603;28;20048;-78
2021/01/10 03:58:37;;;;;;;23.05;18.45;;;;;;;2.71;78.04;100768.31;5034807;28;20044;-80
2021/01/10 04:01:43;;;;;;;24.50;19.42;;;;;;;2.74;78.13;100776.06;5034697;28;20072;-80
2021/01/10 04:04:47;;;;;;;;;;;;;;;2.71;78.24;100770.09;5035226;28;20484;-78
2021/01/10 04:07:51;;;;;;;21.30;18.52;;;;;;;2.77;78.12;100770.63;5034603;28;20276;-77
2021/01/10 04:10:55;;;;;;;24.23;18.90;;;;;;;2.78;78.06;100764.41;5034155;28;20441;-81
2021/01/10 04:13:59;;;;;;;24.55;20.15;;;;;;;2.77;78.21;100757.38;5033978;28;20049;-79
2021/01/10 04:17:04;;;;;;;24.13;20.30;;;;;;;2.74;78.43;100759.34;5034716;28;20045;-77
2021/01/10 04:20:07;;;;;;;;;;;;;;;2.70;78.42;100758.63;5034503;28;20112;-77
2021/01/10 04:23:12;;;;;;;25.42;18.38;;;;;;;2.65;78.89;100752.69;5033824;28;20000;-81
2021/01/10 04:26:16;;;;;;;23.13;19.45;;;;;;;2.58;78.97;100749.50;5034784;28;20057;-79
2021/01/10 04:29:20;;;;;;;22.75;19.30;;;;;;;2.61;79.26;100753.78;5033310;28;20060;-79
2021/01/10 04:32:24;;;;;;;23.52;18.63;;;;;;;2.66;79.12;100742.94;5033649;28;20084;-78
2021/01/10 04:35:29;;;;;;;22.77;18.30;;;;;;;2.69;79.28;100727.78;5034650;28;20056;-75
2021/01/10 04:38:33;;;;;;;24.67;19.45;;;;;;;2.67;79.03;100736.72;5034280;28;20056;-79
2021/01/10 04:41:39;;;;;;;22.02;18.20;;;;;;;2.69;78.76;100735.72;5034505;28;20053;-77
2021/01/10 04:44:43;;;;;;;23.17;18.58;;;;;;;2.73;78.72;100749.66;5034180;28;20487;-81
2021/01/10 04:47:47;;;;;;;23.27;19.50;;;;;;;2.75;78.55;100753.97;5034019;28;20040;-80
2021/01/10 04:50:52;;;;;;;26.17;18.33;;;;;;;2.80;78.23;100751.06;5033752;28;20488;-78
2021/01/10 04:54:00;;;;;;;23.13;18.77;;;;;;;2.85;77.95;100755.22;5033919;28;20036;-81
2021/01/10 04:57:10;;;;;;;22.27;17.73;;;;;;;2.84;77.67;100755.31;5034037;28;20053;-81
2021/01/10 05:00:16;;;;;;;21.65;17.92;;;;;;;2.85;77.80;100760.53;5034026;28;20057;-81
2021/01/10 05:03:24;;;;;;;21.65;18.10;;;;;;;2.82;77.72;100760.66;5034262;28;20380;-81
2021/01/10 05:06:32;;;;;;;22.90;18.52;;;;;;;2.74;77.96;100773.44;5033158;28;20389;-78
2021/01/10 05:09:37;;;;;;;24.63;18.80;;;;;;;2.66;78.32;100774.75;5033874;28;20103;-81
2021/01/10 05:12:41;;;;;;;22.63;18.92;;;;;;;2.60;78.90;100782.06;5033938;28;20067;-80
2021/01/10 05:15:46;;;;;;;26.50;20.05;;;;;;;2.57;78.94;100776.91;5034062;28;20056;-76
2021/01/10 05:18:54;;;;;;;21.77;17.83;;;;;;;2.57;79.18;100782.22;5033907;28;20056;-78
2021/01/10 05:22:05;;;;;;;23.10;18.02;;;;;;;2.59;78.99;100785.63;5033900;28;20053;-79
2021/01/10 05:25:14;;;;;;;26.38;18.17;;;;;;;2.60;78.61;100790.00;5033324;28;20116;-79
2021/01/10 05:28:19;;;;;;;23.33;17.98;;;;;;;2.55;78.86;100792.03;5033880;28;20053;-79
2021/01/10 05:31:45;;;;;;;21.55;18.00;;;;;;;2.64;78.56;100788.09;5033369;28;20443;-78
2021/01/10 05:34:59;;;;;;;21.17;17.17;;;;;;;2.61;78.33;100777.63;5062662;28;20060;-78
2021/01/10 05:38:03;;;;;;;;;;;;;;;2.60;77.94;100778.56;5073845;28;20051;-76
2021/01/10 05:41:10;;;;;;;;;;;;;;;2.57;77.70;100776.91;5074007;28;19916;-77
2021/01/10 05:44:14;;;;;;;18.73;15.65;;;;;;;2.63;77.58;100775.75;5073344;28;19916;-79
2021/01/10 05:47:19;;;;;;;19.58;16.13;;;;;;;2.64;77.71;100777.50;5072758;28;20048;-78
2021/01/10 05:50:24;;;;;;;18.88;16.58;;;;;;;2.55;77.62;100772.63;5073551;28;20055;-78
2021/01/10 05:53:40;;;;;;;21.50;16.45;;;;;;;2.56;77.79;100769.03;5073278;28;20047;-78
2021/01/10 05:56:44;;;;;;;20.80;15.70;;;;;;;2.66;77.51;100767.66;5073168;28;20071;-80
2021/01/10 05:59:50;;;;;;;19.70;16.50;;;;;;;2.68;77.25;100756.97;5072572;28;20063;-79
2021/01/10 06:03:00;;;;;;;23.02;16.75;;;;;;;2.64;76.94;100762.44;5073674;28;20060;-79
2021/01/10 06:06:05;;;;;;;20.65;17.20;;;;;;;2.60;76.96;100760.88;5074353;28;20059;-77
2021/01/10 06:09:09;;;;;;;21.13;16.48;;;;;;;2.61;76.80;100759.09;5075996;28;20051;-77
2021/01/10 06:12:21;;;;;;;20.80;15.80;;;;;;;2.66;76.65;100762.38;5076543;28;20048;-77
2021/01/10 06:15:30;;;;;;;20.35;15.93;;;;;;;2.68;76.30;100763.16;5073368;28;20056;-81
2021/01/10 06:18:34;;;;;;;22.27;17.10;;;;;;;2.72;76.12;100763.84;5067419;28;20051;-78
2021/01/10 06:21:46;;;;;;;20.05;16.88;;;;;;;2.74;75.80;100767.28;5067096;28;20069;-80
2021/01/10 06:24:53;;;;;;;20.45;15.95;;;;;;;2.74;75.56;100768.13;5066812;28;20071;-78
2021/01/10 06:28:03;;;;;;;20.90;15.98;;;;;;;2.74;75.00;100772.59;5066661;28;20400;-78
2021/01/10 06:31:07;;;;;;;19.67;14.65;;;;;;;2.73;74.99;100760.25;5065871;28;20044;-81
2021/01/10 06:34:12;;;;;;;19.55;14.90;;;;;;;2.75;74.94;100759.25;5063726;28;20044;-78
2021/01/10 06:37:18;;;;;;;18.95;14.75;;;;;;;2.72;74.50;100769.13;5065798;28;20391;-82
2021/01/10 06:40:23;;;;;;;18.83;14.55;;;;;;;2.70;74.36;100768.34;5066826;28;20399;-80
2021/01/10 06:43:28;;;;;;;21.85;16.25;;;;;;;2.68;74.49;100768.44;5066821;28;20047;-79
2021/01/10 06:46:33;;;;;;;21.20;15.23;;;;;;;2.68;74.25;100762.28;5061089;28;20044;-81
2021/01/10 06:49:37;;;;;;;20.90;15.15;;;;;;;2.62;74.08;100763.44;5068666;28;20047;-78
2021/01/10 06:52:41;;;;;;;19.17;14.70;;;;;;;2.64;74.21;100757.13;5075986;28;20069;-78
2021/01/10 06:55:46;;;;;;;17.30;14.95;;;;;;;2.64;74.31;100757.13;5087189;28;20055;-81
2021/01/10 06:59:11;;;;;;;22.15;15.15;;;;;;;2.63;74.21;100751.91;5075638;28;20052;-80
2021/01/10 07:02:15;;;;;;;17.95;14.52;;;;;;;2.64;74.36;100753.66;5075529;28;20068;-78
2021/01/10 07:05:20;;;;;;;17.75;14.05;;;;;;;2.63;74.59;100752.78;5093791;28;20051;-80
2021/01/10 07:08:33;;;;;;;19.60;15.52;;;;;;;2.63;74.75;100757.22;5096149;28;20051;-77
2021/01/10 07:11:38;;;;;;;19.70;16.00;;;;;;;2.60;75.02;100755.56;5095772;28;20047;-79
2021/01/10 07:14:43;;;;;;;18.88;15.10;;;;;;;2.59;74.95;100760.97;5095433;28;20055;-79
2021/01/10 07:18:04;;;;;;;18.38;14.63;;;;;;;2.59;75.03;100761.78;5085632;28;20052;-78
2021/01/10 07:21:28;;;;;;;17.10;14.15;;;;;;;2.57;74.97;100754.84;5055958;28;20059;-78
2021/01/10 07:24:33;;;;;;;20.13;14.98;;;;;;;2.56;75.37;100753.16;5064508;28;20071;-78
2021/01/10 07:27:37;;;;;;;17.80;14.07;;;;;;;2.62;75.26;100745.75;5096009;28;20043;-78
2021/01/10 07:30:42;;;;;;;19.05;15.38;;;;;;;2.64;75.24;100746.53;5095099;28;20051;-77
2021/01/10 07:33:47;;;;;;;19.05;14.75;;;;;;;2.67;74.94;100749.97;5055064;28;20056;-77
2021/01/10 07:36:54;;;;;;;18.90;14.23;;;;;;;2.66;74.88;100753.56;5066494;28;20051;-77
2021/01/10 07:40:07;;;;;;;16.85;13.27;;;;;;;2.70;74.62;100753.31;5083868;28;20055;-78
2021/01/10 07:43:11;;;;;;;17.63;14.55;;;;;;;2.76;74.40;100753.03;5075229;28;20047;-79
2021/01/10 07:46:51;;;;;;;18.27;14.20;;;;;;;2.80;74.07;100754.59;5075139;28;20051;-79
2021/01/10 07:49:57;;;;;;;18.40;14.23;;;;;;;2.76;74.11;100760.97;5074167;28;20044;-77
2021/01/10 07:53:02;;;;;;;17.23;13.52;;;;;;;2.86;73.92;100756.94;5074187;28;20044;-77
2021/01/10 07:56:15;;;;;;;18.80;13.45;;;;;;;2.89;73.35;100755.94;5074366;28;20044;-79
2021/01/10 07:59:19;;;;;;;18.52;14.27;;;;;;;3.00;73.09;100778.31;5077757;28;20126;-82
2021/01/10 08:02:47;;;;;;;17.60;13.93;;;;;;;3.07;72.75;100782.38;5075167;28;20387;-81
2021/01/10 08:06:06;;;;;;;17.27;13.77;;;;;;;3.13;72.24;100789.16;5093640;28;20517;-80
2021/01/10 08:09:16;;;;;;;18.45;14.20;;;;;;;3.09;71.61;100785.81;5094869;28;20043;-81
2021/01/10 08:12:31;;;;;;;22.33;15.13;;;;;;;3.04;71.62;100789.63;5083258;28;20052;-77
2021/01/10 08:15:47;;;;;;;19.17;15.57;;;;;;;2.95;72.79;100785.63;5073826;28;20051;-77
2021/01/10 08:18:52;;;;;;;25.15;17.73;;;;;;;2.96;72.44;100800.59;5074492;28;20044;-79
2021/01/10 08:22:02;;;;;;;17.52;14.70;;;;;;;2.81;73.32;100796.06;5062240;28;20067;-80
2021/01/10 08:25:18;;;;;;;18.70;15.00;;;;;;;2.88;74.05;100813.41;5060410;28;20056;-82
2021/01/10 08:28:22;;;;;;;18.42;14.85;;;;;;;2.85;74.40;100807.38;5069344;28;20048;-79
2021/01/10 08:31:28;;;;;;;21.73;16.55;;;;;;;2.78;75.02;100809.47;5073698;28;20056;-79
2021/01/10 08:34:45;;;;;;;22.13;16.92;;;;;;;2.67;76.29;100818.88;5073795;28;20051;-77
2021/01/10 08:37:49;;;;;;;26.40;20.50;;;;;;;2.67;77.83;100827.66;5074157;28;20067;-78
2021/01/10 08:40:57;;;;;;;27.90;20.35;;;;;;;2.65;80.29;100826.88;5083020;28;20070;-77
2021/01/10 08:44:11;;;;;;;27.75;23.38;;;;;;;2.61;81.80;100835.94;5081800;28;20055;-77
2021/01/10 08:47:15;;;;;;;22.58;19.38;;;;;;;2.51;82.95;100840.81;5051829;28;20043;-77
2021/01/10 08:50:20;;;;;;;24.50;20.13;;;;;;;2.42;83.48;100841.22;5050256;28;20056;-76
2021/01/10 08:53:39;;;;;;;24.42;19.42;;;;;;;2.33;84.30;100846.94;5051161;28;20068;-76
2021/01/10 08:56:45;;;;;;;21.95;17.90;;;;;;;2.25;84.62;100851.72;5050314;28;20067;-77
2021/01/10 08:59:51;;;;;;;127.68;80.68;;;;;;;2.34;85.18;100864.56;5051093;28;20382;-76
2021/01/10 09:03:12;;;;;;;59.35;42.80;;;;;;;2.41;85.34;100860.72;5052321;28;20045;-78
2021/01/10 09:06:17;;;;;;;27.73;19.95;;;;;;;2.49;85.20;100866.47;5052662;28;20044;-78
2021/01/10 09:09:35;;;;;;;22.50;18.13;;;;;;;2.46;85.28;100868.44;5053806;28;20056;-78
2021/01/10 09:12:47;;;;;;;23.33;17.23;;;;;;;2.51;85.27;100883.19;5053888;28;20052;-78
2021/01/10 09:15:54;;;;;;;22.83;18.13;;;;;;;2.44;85.07;100880.91;5053847;28;20499;-79
2021/01/10 09:19:01;;;;;;;20.80;18.15;;;;;;;2.38;85.26;100878.53;5053796;28;20060;-78
2021/01/10 09:22:06;;;;;;;23.35;18.13;;;;;;;2.38;85.28;100875.88;5053478;28;20064;-79
2021/01/10 09:25:18;;;;;;;24.80;18.92;;;;;;;2.48;85.19;100859.50;5053949;28;20064;-79
2021/01/10 09:28:22;;;;;;;24.95;18.25;;;;;;;2.63;85.44;100849.97;5053688;28;20055;-77
2021/01/10 09:31:41;;;;;;;23.55;17.42;;;;;;;2.71;84.81;100844.28;5053700;28;20056;-79
2021/01/10 09:34:54;;;;;;;21.58;17.30;;;;;;;2.78;84.65;100840.41;5052138;28;20068;-78
2021/01/10 09:38:07;;;;;;;22.52;17.58;;;;;;;2.83;84.14;100846.34;5053603;28;20064;-77
2021/01/10 09:41:13;;;;;;;20.73;16.63;;;;;;;2.91;83.82;100841.56;5054927;28;20052;-80
2021/01/10 09:44:21;;;;;;;19.02;14.35;;;;;;;2.99;83.85;100842.00;5057537;28;20043;-79
2021/01/10 09:47:35;;;;;;;20.75;16.60;;;;;;;3.09;83.05;100844.16;5057524;28;20052;-79
2021/01/10 09:50:40;;;;;;;18.55;14.88;;;;;;;3.16;82.35;100845.56;5057328;28;20052;-79
2021/01/10 09:53:47;;;;;;;24.80;18.33;;;;;;;3.15;82.31;100854.47;5057345;28;20060;-79
2021/01/10 09:56:53;;;;;;;20.77;16.42;;;;;;;3.07;81.95;100861.06;5057515;28;20530;-79
2021/01/10 10:00:03;;;;;;;19.30;14.82;;;;;;;2.91;82.20;100863.63;5057222;28;20052;-78
2021/01/10 10:03:17;;;;;;;20.27;15.68;;;;;;;2.86;82.71;100855.03;5056919;28;20495;-79
2021/01/10 10:06:21;;;;;;;18.17;14.50;;;;;;;2.91;82.78;100860.09;5057133;28;20059;-78
2021/01/10 10:09:52;;;;;;;18.20;14.60;;;;;;;2.82;83.01;100872.00;5056909;28;20056;-79
2021/01/10 10:13:01;;;;;;;18.52;15.40;;;;;;;2.66;83.78;100864.84;5056829;28;20072;-79
2021/01/10 10:16:17;;;;;;;22.33;16.10;;;;;;;2.63;84.85;100864.06;5057109;28;20052;-77
2021/01/10 10:19:24;;;;;;;21.90;16.27;;;;;;;2.75;85.20;100857.31;5056688;28;20503;-79
2021/01/10 10:22:31;;;;;;;20.20;15.77;;;;;;;2.84;85.60;100854.22;5056789;28;20048;-78
2021/01/10 10:25:36;;;;;;;19.67;15.27;;;;;;;2.81;85.46;100858.81;5056901;28;20372;-77
2021/01/10 10:28:40;;;;;;;19.35;14.73;;;;;;;2.80;85.18;100842.06;5056797;28;20048;-79
2021/01/10 10:31:48;;;;;;;17.40;13.45;;;;;;;2.80;85.34;100847.34;5056318;28;20063;-79
2021/01/10 10:34:53;;;;;;;20.33;16.60;;;;;;;2.79;85.60;100842.97;5055916;28;20055;-76
2021/01/10 10:37:58;;;;;;;20.92;16.60;;;;;;;2.96;85.73;100850.13;5056223;28;20068;-79
2021/01/10 10:41:04;;;;;;;19.27;15.63;;;;;;;3.14;85.85;100844.78;5067370;28;20068;-78
2021/01/10 10:44:08;;;;;;;122.32;84.90;;;;;;;3.29;85.14;100843.16;5056158;28;20051;-79
2021/01/10 10:47:14;;;;;;;148.30;96.18;;;;;;;3.45;84.70;100848.56;5056333;28;20044;-78
2021/01/10 10:50:18;;;;;;;23.90;17.92;;;;;;;3.42;84.12;100856.66;5056261;28;20045;-78
2021/01/10 10:53:23;;;;;;;18.27;14.20;;;;;;;3.43;83.79;100850.44;5054854;28;20048;-79
2021/01/10 10:56:50;;;;;;;20.25;13.05;;;;;;;3.55;83.37;100841.84;5055166;28;20529;-80
2021/01/10 10:59:54;;;;;;;16.25;12.95;;;;;;;3.64;83.13;100844.03;5056068;28;20120;-77
2021/01/10 11:03:00;;;;;;;19.13;14.00;;;;;;;3.60;83.18;100839.81;5056062;28;20049;-75
2021/01/10 11:06:04;;;;;;;19.30;13.40;;;;;;;3.60;83.11;100846.00;5062457;28;20047;-77
2021/01/10 11:09:24;;;;;;;18.75;13.55;;;;;;;3.51;83.25;100843.78;5055887;28;20044;-77
2021/01/10 11:12:32;;;;;;;16.98;13.45;;;;;;;3.44;83.58;100841.53;5055948;28;20052;-78
2021/01/10 11:15:36;;;;;;;18.77;13.52;;;;;;;3.43;83.94;100832.72;5054828;28;20052;-79
2021/01/10 11:18:41;;;;;;;16.50;13.32;;;;;;;3.51;83.76;100824.34;5055800;28;20052;-80
2021/01/10 11:21:48;;;;;;;16.88;13.77;;;;;;;3.44;83.63;100817.63;5055675;28;20077;-78
2021/01/10 11:24:52;;;;;;;16.50;13.60;;;;;;;3.44;83.82;100828.25;5055587;28;20052;-79
2021/01/10 11:27:57;;;;;;;15.75;12.75;;;;;;;3.44;84.06;100822.94;5055534;28;20064;-80
2021/01/10 11:31:03;;;;;;;18.40;14.48;;;;;;;3.39;84.30;100824.97;5055411;28;20048;-78
2021/01/10 11:34:10;;;;;;;18.05;14.35;;;;;;;3.34;84.31;100832.31;5054862;28;20499;-77
2021/01/10 11:37:14;;;;;;;18.02;13.13;;;;;;;3.27;84.07;100826.47;5055536;28;20052;-79
2021/01/10 11:40:18;;;;;;;15.30;12.63;;;;;;;3.22;84.66;100825.84;5055374;28;20056;-78
2021/01/10 11:43:22;;;;;;;18.67;14.80;;;;;;;3.12;84.70;100824.56;5055551;28;20048;-78
2021/01/10 11:46:27;;;;;;;18.48;15.82;;;;;;;2.99;84.82;100826.97;5055292;28;20049;-79
2021/01/10 11:49:32;;;;;;;21.42;16.98;;;;;;;2.89;85.87;100819.56;5055192;28;20047;-78
2021/01/10 11:52:36;;;;;;;135.02;95.60;;;;;;;2.81;86.12;100811.13;5054196;28;20391;-78
2021/01/10 11:55:40;;;;;;;78.68;53.40;;;;;;;2.78;87.14;100812.13;5054993;28;20045;-77
2021/01/10 11:58:45;;;;;;;25.38;20.13;;;;;;;2.76;86.98;100807.81;5054912;28;20056;-79
2021/01/10 12:01:49;;;;;;;21.17;17.40;;;;;;;2.70;87.48;100803.69;5055174;28;20052;-78
2021/01/10 12:04:53;;;;;;;20.67;16.95;;;;;;;2.69;87.67;100788.72;5054584;28;20380;-78
2021/01/10 12:07:58;;;;;;;21.77;17.45;;;;;;;2.77;87.91;100783.88;5054171;28;20060;-76
2021/01/10 12:11:02;;;;;;;22.13;17.35;;;;;;;2.72;87.54;100783.25;5054593;28;20052;-77
2021/01/10 12:14:07;;;;;;;23.10;18.40;;;;;;;2.62;87.76;100784.63;5054630;28;20060;-77
2021/01/10 12:17:11;;;;;;;23.20;18.52;;;;;;;2.44;88.17;100785.53;5054703;28;20103;-77
2021/01/10 12:20:16;;;;;;;22.63;17.95;;;;;;;2.41;88.57;100781.25;5042385;28;20052;-75
2021/01/10 12:23:20;;;;;;;21.52;18.23;;;;;;;2.33;89.05;100787.81;5054496;28;20051;-77
2021/01/10 12:26:24;;;;;;;23.45;18.30;;;;;;;2.35;88.98;100788.59;5053367;28;20167;-79
2021/01/10 12:29:29;;;;;;;19.13;17.05;;;;;;;2.48;88.98;100782.66;5053749;28;20052;-79
2021/01/10 12:32:43;;;;;;;19.92;16.45;;;;;;;2.58;88.92;100786.59;5054303;28;20040;-79
2021/01/10 12:35:47;;;;;;;21.48;17.83;;;;;;;2.50;88.24;100791.38;5054174;28;20056;-78
2021/01/10 12:38:52;;;;;;;20.48;17.85;;;;;;;2.35;88.63;100791.25;5053347;28;20055;-78
2021/01/10 12:41:56;;;;;;;21.17;17.98;;;;;;;2.36;89.12;100785.03;5054095;28;20053;-78
2021/01/10 12:45:02;;;;;;;21.80;18.38;;;;;;;2.25;88.94;100782.88;5054129;28;20102;-78
2021/01/10 12:48:10;;;;;;;21.08;17.77;;;;;;;2.26;89.32;100781.97;5054056;28;20051;-78
2021/01/10 12:51:14;;;;;;;63.85;41.67;;;;;;;2.32;89.59;100781.66;5064639;28;20419;-79
2021/01/10 12:54:19;;;;;;;82.53;55.47;;;;;;;2.39;89.50;100782.25;5053168;28;20379;-76
2021/01/10 12:57:25;;;;;;;27.63;20.65;;;;;;;2.30;89.51;100780.00;5053928;28;20475;-78
2021/01/10 13:00:30;;;;;;;23.67;18.23;;;;;;;2.25;89.69;100782.00;5053862;28;20052;-78
2021/01/10 13:03:36;;;;;;;22.35;18.65;;;;;;;2.23;89.94;100770.63;5054068;28;20048;-78
2021/01/10 13:06:41;;;;;;;26.40;21.23;;;;;;;2.27;90.05;100782.81;5053730;28;20400;-79
2021/01/10 13:09:45;;;;;;;24.52;21.90;;;;;;;2.24;90.17;100775.88;5053691;28;20056;-78
2021/01/10 13:12:51;;;;;;;26.13;21.17;;;;;;;2.32;90.69;100773.72;5053997;28;20515;-78
2021/01/10 13:15:55;;;;;;;24.20;19.30;;;;;;;2.32;90.10;100764.94;5054847;28;20491;-78
2021/01/10 13:19:00;;;;;;;25.65;20.48;;;;;;;2.30;90.44;100761.47;5057953;28;20044;-78
2021/01/10 13:22:11;;;;;;;26.23;21.30;;;;;;;2.33;90.42;100758.69;5057146;28;20076;-78
2021/01/10 13:25:17;;;;;;;24.45;20.25;;;;;;;2.31;90.68;100756.13;5057761;28;20388;-79
2021/01/10 13:28:22;;;;;;;29.15;22.23;;;;;;;2.44;90.37;100753.75;5057244;28;20506;-78
2021/01/10 13:31:26;;;;;;;25.17;20.38;;;;;;;2.56;90.25;100753.16;5056527;28;20075;-78
2021/01/10 13:34:31;;;;;;;25.75;20.52;;;;;;;2.62;90.11;100747.53;5057174;28;20408;-78
2021/01/10 13:37:35;;;;;;;25.38;21.05;;;;;;;2.64;90.30;100745.69;5056869;28;20048;-77
2021/01/10 13:40:39;;;;;;;26.88;21.20;;;;;;;2.60;90.05;100739.66;5068115;28;20467;-79
2021/01/10 13:43:46;;;;;;;22.90;19.73;;;;;;;2.67;90.10;100737.56;5057483;28;20056;-79
2021/01/10 13:46:49;;;;;;;25.15;22.45;;;;;;;2.76;89.67;100729.19;5057459;28;20380;-76
2021/01/10 13:49:35;;;;;;;26.73;20.33;;;;;;;2.78;89.42;100729.97;5063248;28;20056;-80
2021/01/10 13:52:39;;;;;;;23.88;19.90;;;;;;;2.79;89.23;100734.31;5057271;28;20044;-78
2021/01/10 13:55:25;;;;;;;24.13;19.55;;;;;;;2.85;89.15;100735.81;5063944;28;20048;-79
2021/01/10 13:58:10;;;;;;;22.70;18.73;;;;;;;2.96;88.94;100726.34;5063940;28;20048;-78
2021/01/10 14:00:56;;;;;;;22.05;18.38;;;;;;;3.11;88.47;100736.19;5064085;28;20048;-77
2021/01/10 14:04:02;;;;;;;22.95;19.45;;;;;;;3.13;88.12;100733.47;5057134;28;20044;-77
2021/01/10 14:07:06;;;;;;;21.65;18.95;;;;;;;3.03;87.29;100729.56;5056563;28;20052;-80
2021/01/10 14:10:11;;;;;;;24.92;21.20;;;;;;;2.96;87.89;100731.66;5055851;28;20048;-79
2021/01/10 14:12:56;;;;;;;26.40;22.38;;;;;;;2.89;88.21;100722.31;5062705;28;20391;-80
2021/01/10 14:16:04;;;;;;;27.30;21.00;;;;;;;2.78;88.49;100723.78;5056395;28;20483;-78
2021/01/10 14:19:09;;;;;;;25.05;20.75;;;;;;;2.81;88.64;100724.50;5056838;28;20048;-80
2021/01/10 14:22:13;;;;;;;25.52;21.58;;;;;;;2.86;88.60;100727.78;5056760;28;20377;-77